createdAt,value
2019-06-20T00:01:55.359Z,52.36
2019-06-20T00:04:24.339Z,51.70
2019-06-20T00:06:53.243Z,51.50
2019-06-20T00:09:22.174Z,51.13
2019-06-20T00:11:51.081Z,51.38
2019-06-20T00:14:19.992Z,51.10
2019-06-20T00:16:49.247Z,52.36
2019-06-20T00:19:18.147Z,52.24
2019-06-20T00:21:47.116Z,51.32
2019-06-20T00:24:16.064Z,51.11
2019-06-20T00:26:44.967Z,51.89
2019-06-20T00:29:13.880Z,51.31
2019-06-20T00:31:42.867Z,51.56
2019-06-20T00:34:11.774Z,51.00
2019-06-20T00:36:40.749Z,51.12
2019-06-20T00:39:10.420Z,52.80
2019-06-20T00:41:39.674Z,50.83
2019-06-20T00:44:08.561Z,51.66
2019-06-20T00:46:37.460Z,50.29
2019-06-20T00:49:06.428Z,51.16
2019-06-20T00:51:35.456Z,51.42
2019-06-20T00:54:04.408Z,51.53
2019-06-20T00:56:33.319Z,51.37
2019-06-20T00:59:02.202Z,53.27
2019-06-20T01:01:31.149Z,52.18
2019-06-20T01:04:00.114Z,52.00
2019-06-20T01:06:29.038Z,53.31
2019-06-20T01:08:57.925Z,51.91
2019-06-20T01:11:26.893Z,53.32
2019-06-20T01:13:55.775Z,52.35
2019-06-20T01:16:25.014Z,53.08
2019-06-20T01:18:53.954Z,51.12
2019-06-20T01:21:23.257Z,51.73
2019-06-20T01:23:52.215Z,53.18
2019-06-20T01:26:21.172Z,53.93
2019-06-20T01:28:50.062Z,54.10
2019-06-20T01:31:19.023Z,53.01
2019-06-20T01:33:48.198Z,53.50
2019-06-20T01:36:17.179Z,52.12
2019-06-20T01:38:46.098Z,51.80
2019-06-20T01:41:15.357Z,52.37
2019-06-20T01:43:50.556Z,52.88
2019-06-20T01:46:16.531Z,52.42
2019-06-20T01:48:45.477Z,53.99
2019-06-20T01:51:14.436Z,52.73
2019-06-20T01:53:43.391Z,53.41
2019-06-20T01:56:12.353Z,53.46
2019-06-20T01:58:41.316Z,53.43
2019-06-20T02:01:10.301Z,53.28
2019-06-20T02:03:39.278Z,52.44
2019-06-20T02:06:08.234Z,52.85
2019-06-20T02:08:37.134Z,53.22
2019-06-20T02:11:06.383Z,53.02
2019-06-20T02:13:35.350Z,53.94
2019-06-20T02:16:04.427Z,53.18
2019-06-20T02:18:33.571Z,51.91
2019-06-20T02:21:02.546Z,52.94
2019-06-20T02:23:31.532Z,52.38
2019-06-20T02:26:00.489Z,51.07
2019-06-20T02:28:29.456Z,51.57
2019-06-20T02:30:58.451Z,52.65
2019-06-20T02:33:27.701Z,52.51
2019-06-20T02:35:56.608Z,51.57
2019-06-20T02:38:25.569Z,51.47
2019-06-20T02:40:54.831Z,51.22
2019-06-20T02:43:23.858Z,51.40
2019-06-20T02:45:53.096Z,52.56
2019-06-20T02:48:22.049Z,51.67
2019-06-20T02:50:51.005Z,51.23
2019-06-20T02:53:19.966Z,52.02
2019-06-20T02:55:49.193Z,51.17
2019-06-20T02:58:18.067Z,51.31
2019-06-20T03:00:54.995Z,52.38
2019-06-20T03:03:23.991Z,50.79
2019-06-20T03:05:53.201Z,51.13
2019-06-20T03:08:22.174Z,52.14
2019-06-20T03:10:51.132Z,51.48
2019-06-20T03:13:20.473Z,50.96
2019-06-20T03:15:50.169Z,51.62
2019-06-20T03:18:19.429Z,51.83
2019-06-20T03:20:48.467Z,51.56
2019-06-20T03:23:17.454Z,51.13
2019-06-20T03:25:46.361Z,51.99
2019-06-20T03:28:15.270Z,50.64
2019-06-20T03:30:44.134Z,50.46
2019-06-20T03:33:13.557Z,49.90
2019-06-20T03:35:42.538Z,51.61
2019-06-20T03:38:11.536Z,51.42
2019-06-20T03:40:40.497Z,52.58
2019-06-20T03:43:09.489Z,52.08
2019-06-20T03:45:38.456Z,50.81
2019-06-20T03:48:07.438Z,51.43
2019-06-20T03:50:36.413Z,50.92
2019-06-20T03:53:05.654Z,52.41
2019-06-20T03:55:34.731Z,54.48
2019-06-20T03:58:03.985Z,53.19
2019-06-20T04:00:34.929Z,54.25
2019-06-20T04:03:05.417Z,54.15
2019-06-20T04:05:35.046Z,55.16
2019-06-20T04:08:04.279Z,55.11
2019-06-20T04:10:33.419Z,54.11
2019-06-20T04:13:02.410Z,55.97
2019-06-20T04:15:31.424Z,56.24
2019-06-20T04:18:00.425Z,54.97
2019-06-20T04:20:29.387Z,55.02
2019-06-20T04:22:58.387Z,55.54
2019-06-20T04:25:27.645Z,55.76
2019-06-20T04:27:56.646Z,55.68
2019-06-20T04:30:25.930Z,53.96
2019-06-20T04:32:54.928Z,53.12
2019-06-20T04:35:23.936Z,52.90
2019-06-20T04:37:52.949Z,53.67
2019-06-20T04:40:22.167Z,55.41
2019-06-20T04:42:51.093Z,56.00
2019-06-20T04:45:35.033Z,56.26
2019-06-20T04:47:58.337Z,56.35
2019-06-20T04:50:27.312Z,55.42
2019-06-20T04:52:56.308Z,55.05
2019-06-20T04:55:25.282Z,54.90
2019-06-20T04:57:54.301Z,54.48
2019-06-20T05:00:23.295Z,54.85
2019-06-20T05:02:52.221Z,53.02
2019-06-20T05:05:21.227Z,54.76
2019-06-20T05:07:50.118Z,55.39
2019-06-20T05:10:19.031Z,57.32
2019-06-20T05:12:48.031Z,58.36
2019-06-20T05:15:17.189Z,56.97
2019-06-20T05:17:46.143Z,56.91
2019-06-20T05:20:15.134Z,57.65
2019-06-20T05:22:44.167Z,56.81
2019-06-20T05:25:13.350Z,55.94
2019-06-20T05:27:42.280Z,55.44
2019-06-20T05:30:11.523Z,53.62
2019-06-20T05:32:40.435Z,52.86
2019-06-20T05:35:09.619Z,54.07
2019-06-20T05:37:38.575Z,52.51
2019-06-20T05:40:07.660Z,50.82
2019-06-20T05:42:36.593Z,51.63
2019-06-20T05:45:06.363Z,52.62
2019-06-20T05:47:35.358Z,52.47
2019-06-20T05:50:04.869Z,51.89
2019-06-20T05:52:33.845Z,53.60
2019-06-20T05:55:02.836Z,49.72
2019-06-20T05:57:32.032Z,47.84
2019-06-20T06:00:01.012Z,46.82
2019-06-20T06:02:29.930Z,46.20
2019-06-20T06:04:58.916Z,48.16
2019-06-20T06:07:28.144Z,49.11
2019-06-20T06:09:57.121Z,49.82
2019-06-20T06:12:26.003Z,48.89
2019-06-20T06:14:55.004Z,47.00
2019-06-20T06:17:24.033Z,45.98
2019-06-20T06:19:53.057Z,42.05
2019-06-20T06:22:21.943Z,42.30
2019-06-20T06:24:50.962Z,41.18
2019-06-20T06:27:20.105Z,40.63
2019-06-20T06:29:49.066Z,41.00
2019-06-20T06:32:20.173Z,41.76
2019-06-20T06:34:48.879Z,40.86
2019-06-20T06:37:17.910Z,39.16
2019-06-20T06:39:47.199Z,38.26
2019-06-20T06:42:16.214Z,37.71
2019-06-20T06:44:45.213Z,38.09
2019-06-20T06:47:14.391Z,38.20
2019-06-20T06:49:43.480Z,38.74
2019-06-20T06:52:12.496Z,37.95
2019-06-20T06:54:41.512Z,37.36
2019-06-20T06:57:10.787Z,36.76
2019-06-20T06:59:40.042Z,36.28
2019-06-20T07:02:08.942Z,34.67
2019-06-20T07:04:37.959Z,34.72
2019-06-20T07:07:07.247Z,36.74
2019-06-20T07:09:36.148Z,37.50
2019-06-20T07:12:05.328Z,34.93
2019-06-20T07:14:34.316Z,34.97
2019-06-20T07:17:03.404Z,35.48
2019-06-20T07:19:32.401Z,34.32
2019-06-20T07:22:01.461Z,36.32
2019-06-20T07:24:30.471Z,37.30
2019-06-20T07:26:59.521Z,37.83
2019-06-20T07:29:28.516Z,38.88
2019-06-20T07:31:57.792Z,38.40
2019-06-20T07:34:26.795Z,38.57
2019-06-20T07:36:55.699Z,38.48
2019-06-20T07:39:24.678Z,41.14
2019-06-20T07:41:53.709Z,41.52
2019-06-20T07:44:22.985Z,41.60
2019-06-20T07:46:52.124Z,41.14
2019-06-20T07:49:21.149Z,43.16
2019-06-20T07:51:50.290Z,39.98
2019-06-20T07:54:19.312Z,41.90
2019-06-20T07:56:48.292Z,40.75
2019-06-20T07:59:17.325Z,41.58
2019-06-20T08:01:46.317Z,43.14
2019-06-20T08:04:15.469Z,40.93
2019-06-20T08:06:44.555Z,42.91
2019-06-20T08:09:13.594Z,44.26
2019-06-20T08:11:42.614Z,43.50
2019-06-20T08:14:11.816Z,43.77
2019-06-20T08:16:40.879Z,44.19
2019-06-20T08:19:09.992Z,41.34
2019-06-20T08:21:39.084Z,41.72
2019-06-20T08:24:08.158Z,37.92
2019-06-20T08:26:37.502Z,36.48
2019-06-20T08:29:18.661Z,36.71
2019-06-20T08:31:37.328Z,36.75
2019-06-20T08:34:06.597Z,36.52
2019-06-20T08:36:35.631Z,37.53
2019-06-20T08:39:08.819Z,37.91
2019-06-20T08:41:37.802Z,39.75
2019-06-20T08:44:07.045Z,39.76
2019-06-20T08:46:36.444Z,41.22
2019-06-20T08:49:05.863Z,38.49
2019-06-20T08:51:34.980Z,36.11
2019-06-20T08:54:05.379Z,34.61
2019-06-20T08:56:34.704Z,33.17
2019-06-20T08:59:04.877Z,34.43
2019-06-20T09:01:34.087Z,34.76
2019-06-20T09:06:32.486Z,37.42
2019-06-20T09:09:02.436Z,39.07
2019-06-20T09:11:31.714Z,39.37
2019-06-20T09:14:01.506Z,39.57
2019-06-20T09:16:30.537Z,40.50
2019-06-20T09:19:00.485Z,40.98
2019-06-20T09:21:29.594Z,41.19
2019-06-20T09:23:59.926Z,41.10
2019-06-20T09:26:29.121Z,41.86
2019-06-20T09:28:59.349Z,41.79
2019-06-20T09:31:28.632Z,39.78
2019-06-20T09:34:01.759Z,40.30
2019-06-20T09:36:28.485Z,40.23
2019-06-20T09:38:58.187Z,39.46
2019-06-20T09:41:28.523Z,40.24
2019-06-20T09:43:58.552Z,41.07
2019-06-20T09:46:27.555Z,42.12
2019-06-20T09:48:56.613Z,40.76
2019-06-20T09:51:25.587Z,41.33
2019-06-20T09:53:56.279Z,41.48
2019-06-20T09:56:25.317Z,42.65
2019-06-20T09:58:55.331Z,43.25
2019-06-20T10:01:24.309Z,42.09
2019-06-20T10:03:54.669Z,41.30
2019-06-20T10:06:23.680Z,39.95
2019-06-20T10:08:52.692Z,37.90
2019-06-20T10:11:21.684Z,37.66
2019-06-20T10:13:52.167Z,38.62
2019-06-20T10:16:21.158Z,39.29
2019-06-20T10:18:50.184Z,37.78
2019-06-20T10:21:19.224Z,35.06
2019-06-20T10:23:48.216Z,33.46
2019-06-20T10:26:17.230Z,32.83
2019-06-20T10:28:47.567Z,32.18
2019-06-20T10:31:17.083Z,34.15
2019-06-20T10:33:46.884Z,33.49
2019-06-20T10:36:15.976Z,33.85
2019-06-20T10:38:46.436Z,34.32
2019-06-20T10:41:15.497Z,35.90
2019-06-20T10:43:45.714Z,36.11
2019-06-20T10:46:15.276Z,36.09
2019-06-20T10:48:44.446Z,37.59
2019-06-20T10:51:33.075Z,37.54
2019-06-20T10:54:02.537Z,37.74
2019-06-20T10:56:31.538Z,38.03
2019-06-20T10:59:00.619Z,38.52
2019-06-20T11:01:29.901Z,39.57
2019-06-20T11:03:59.209Z,35.79
2019-06-20T11:06:28.111Z,34.69
2019-06-20T11:08:57.128Z,33.46
2019-06-20T11:11:26.124Z,32.84
2019-06-20T11:13:55.106Z,30.92
2019-06-20T11:16:24.115Z,32.54
2019-06-20T11:18:53.098Z,34.30
2019-06-20T11:21:22.106Z,32.81
2019-06-20T11:23:51.130Z,33.45
2019-06-20T11:26:20.228Z,34.57
2019-06-20T11:28:49.126Z,34.19
2019-06-20T11:31:18.124Z,34.06
2019-06-20T11:33:50.243Z,33.89
2019-06-20T11:36:18.931Z,33.67
2019-06-20T11:38:49.181Z,35.15
2019-06-20T11:41:18.105Z,35.79
2019-06-20T11:43:47.377Z,35.74
2019-06-20T11:46:16.367Z,37.64
2019-06-20T11:48:45.419Z,37.31
2019-06-20T11:51:14.645Z,35.89
2019-06-20T11:53:43.677Z,37.37
2019-06-20T11:56:12.714Z,35.26
2019-06-20T11:58:41.742Z,36.65
2019-06-20T12:01:10.957Z,36.03
2019-06-20T12:03:40.751Z,34.66
2019-06-20T12:06:09.683Z,34.94
2019-06-20T12:08:39.637Z,33.39
2019-06-20T12:11:09.609Z,33.72
2019-06-20T12:13:40.423Z,34.39
2019-06-20T12:16:09.772Z,34.92
2019-06-20T12:18:40.215Z,34.90
2019-06-20T12:21:09.621Z,36.42
2019-06-20T12:23:39.525Z,34.84
2019-06-20T12:26:09.616Z,36.33
2019-06-20T12:28:39.648Z,35.72
2019-06-20T12:31:19.522Z,35.99
2019-06-20T12:33:42.336Z,36.02
2019-06-20T12:36:11.641Z,34.85
2019-06-20T12:38:41.121Z,35.60
2019-06-20T12:41:12.814Z,36.10
2019-06-20T12:43:41.911Z,37.44
2019-06-20T12:46:11.350Z,38.28
2019-06-20T12:48:41.281Z,38.36
2019-06-20T12:51:10.615Z,37.09
2019-06-20T12:53:40.504Z,38.14
2019-06-20T12:56:10.487Z,39.31
2019-06-20T12:58:40.751Z,39.48
2019-06-20T13:01:10.533Z,39.36
2019-06-20T13:03:50.541Z,38.38
2019-06-20T13:06:19.666Z,38.35
2019-06-20T13:08:56.550Z,37.37
2019-06-20T13:11:25.654Z,37.39
2019-06-20T13:13:54.704Z,35.32
2019-06-20T13:16:23.783Z,34.29
2019-06-20T13:18:53.747Z,34.59
2019-06-20T13:21:22.652Z,33.16
2019-06-20T13:23:51.643Z,34.05
2019-06-20T13:26:20.684Z,34.98
2019-06-20T13:29:03.255Z,35.24
2019-06-20T13:31:21.106Z,36.56
2019-06-20T13:33:50.085Z,36.10
2019-06-20T13:36:19.015Z,34.79
2019-06-20T13:38:48.812Z,35.48
2019-06-20T13:41:17.848Z,35.94
2019-06-20T13:43:46.851Z,33.16
2019-06-20T13:46:15.887Z,33.71
2019-06-20T13:48:45.798Z,34.11
2019-06-20T13:51:14.873Z,32.47
2019-06-20T13:53:44.254Z,32.83
2019-06-20T13:56:13.196Z,32.29
2019-06-20T13:58:42.345Z,32.57
2019-06-20T14:01:11.604Z,32.88
2019-06-20T14:03:43.431Z,32.56
2019-06-20T14:06:11.313Z,33.68
2019-06-20T14:08:42.348Z,31.95
2019-06-20T14:11:10.954Z,32.31
2019-06-20T14:13:41.129Z,31.33
2019-06-20T14:16:10.716Z,32.68
2019-06-20T14:18:39.679Z,31.68
2019-06-20T14:21:08.793Z,32.07
2019-06-20T14:23:37.820Z,33.51
2019-06-20T14:26:06.808Z,33.09
2019-06-20T14:28:35.830Z,32.39
2019-06-20T14:31:04.838Z,32.58
2019-06-20T14:33:34.282Z,34.19
2019-06-20T14:36:03.243Z,32.04
2019-06-20T14:38:32.239Z,31.60
2019-06-20T14:41:01.367Z,31.25
2019-06-20T14:43:30.427Z,32.48
2019-06-20T14:45:59.719Z,32.75
2019-06-20T14:48:29.933Z,31.87
2019-06-20T14:50:58.919Z,33.40
2019-06-20T14:53:28.048Z,33.42
2019-06-20T14:55:56.968Z,33.24
2019-06-20T14:58:26.015Z,34.76
2019-06-20T15:00:55.116Z,36.16
2019-06-20T15:03:24.241Z,35.83
2019-06-20T15:05:54.685Z,36.08
2019-06-20T15:08:23.882Z,35.88
2019-06-20T15:10:54.022Z,36.37
2019-06-20T15:13:23.337Z,36.62
2019-06-20T15:15:53.408Z,38.99
2019-06-20T15:18:27.245Z,38.16
2019-06-20T15:20:59.299Z,38.09
2019-06-20T15:23:27.429Z,41.30
2019-06-20T15:25:56.570Z,45.88
2019-06-20T15:28:26.220Z,49.67
2019-06-20T15:30:55.238Z,50.04
2019-06-20T15:33:24.352Z,53.14
2019-06-20T15:35:55.186Z,52.24
2019-06-20T15:38:24.515Z,50.25
2019-06-20T15:40:53.614Z,51.59
2019-06-20T15:43:22.682Z,49.99
2019-06-20T15:45:52.093Z,51.56
2019-06-20T15:48:22.049Z,50.66
2019-06-20T15:50:51.056Z,50.62
2019-06-20T15:53:20.233Z,50.18
2019-06-20T15:56:03.396Z,50.40
2019-06-20T15:58:28.372Z,50.92
2019-06-20T16:00:58.076Z,49.19
2019-06-20T16:03:30.221Z,51.63
2019-06-20T16:05:59.659Z,51.76
2019-06-20T16:08:28.839Z,52.79
2019-06-20T16:10:58.416Z,51.85
2019-06-20T16:13:27.713Z,49.72
2019-06-20T16:15:56.853Z,49.68
2019-06-20T16:18:25.951Z,48.07
2019-06-20T16:20:55.072Z,48.72
2019-06-20T16:23:24.152Z,49.33
2019-06-20T16:25:53.143Z,48.51
2019-06-20T16:28:22.199Z,49.64
2019-06-20T16:30:51.335Z,49.64
2019-06-20T16:33:25.094Z,50.16
2019-06-20T16:35:51.009Z,48.01
2019-06-20T16:38:20.762Z,48.28
2019-06-20T16:40:49.848Z,48.81
2019-06-20T16:43:18.807Z,47.96
2019-06-20T16:45:48.094Z,47.82
2019-06-20T16:48:17.352Z,47.62
2019-06-20T16:50:46.305Z,48.29
2019-06-20T16:53:15.263Z,46.81
2019-06-20T16:55:44.466Z,49.77
2019-06-20T16:58:13.386Z,47.89
2019-06-20T17:00:42.705Z,45.90
2019-06-20T17:03:12.036Z,47.51
2019-06-20T17:05:41.007Z,46.97
2019-06-20T17:08:10.038Z,48.27
2019-06-20T17:10:39.119Z,49.31
2019-06-20T17:13:08.853Z,49.05
2019-06-20T17:15:37.849Z,50.15
2019-06-20T17:18:06.916Z,50.32
2019-06-20T17:20:35.836Z,50.11
2019-06-20T17:23:04.998Z,50.76
2019-06-20T17:25:34.062Z,48.77
2019-06-20T17:28:04.042Z,47.82
2019-06-20T17:30:33.076Z,49.13
2019-06-20T17:33:03.245Z,51.63
2019-06-20T17:35:32.500Z,49.40
2019-06-20T17:38:01.594Z,48.14
2019-06-20T17:40:30.740Z,52.84
2019-06-20T17:42:59.769Z,53.08
2019-06-20T17:45:29.735Z,49.92
2019-06-20T17:48:00.794Z,50.78
2019-06-20T17:50:29.944Z,51.36
2019-06-20T17:52:59.262Z,50.42
2019-06-20T17:55:28.214Z,51.03
2019-06-20T17:57:57.302Z,49.95
2019-06-20T18:00:28.155Z,52.64
2019-06-20T18:02:57.195Z,52.38
2019-06-20T18:05:26.241Z,49.26
2019-06-20T18:07:55.364Z,51.64
2019-06-20T18:10:24.459Z,50.96
2019-06-20T18:12:53.763Z,50.76
2019-06-20T18:15:24.022Z,49.73
2019-06-20T18:17:53.003Z,50.89
2019-06-20T18:20:22.644Z,51.54
2019-06-20T18:22:51.944Z,51.56
2019-06-20T18:25:20.964Z,51.22
2019-06-20T18:27:49.850Z,52.42
2019-06-20T18:30:19.193Z,52.24
2019-06-20T18:32:48.133Z,50.09
2019-06-20T18:35:17.013Z,50.35
2019-06-20T18:37:46.266Z,50.54
2019-06-20T18:40:15.725Z,50.84
2019-06-20T18:42:44.824Z,51.49
2019-06-20T18:45:13.871Z,51.33
2019-06-20T18:47:43.125Z,50.10
2019-06-20T18:50:13.585Z,51.03
2019-06-20T18:52:52.117Z,50.96
2019-06-20T18:55:13.357Z,51.11
2019-06-20T18:57:42.360Z,51.67
2019-06-20T19:00:14.397Z,52.38
2019-06-20T19:02:43.377Z,51.43
2019-06-20T19:05:12.637Z,51.77
2019-06-20T19:07:41.866Z,50.09
2019-06-20T19:10:11.256Z,50.35
2019-06-20T19:12:40.243Z,51.54
2019-06-20T19:15:10.078Z,54.01
2019-06-20T19:17:39.057Z,54.83
2019-06-20T19:20:08.233Z,52.06
2019-06-20T19:22:37.169Z,51.41
2019-06-20T19:25:06.350Z,50.54
2019-06-20T19:27:45.599Z,50.44
2019-06-20T19:30:06.458Z,51.42
2019-06-20T19:32:35.456Z,50.50
2019-06-20T19:35:04.717Z,51.75
2019-06-20T19:37:33.713Z,52.28
2019-06-20T19:40:02.831Z,53.77
2019-06-20T19:42:31.756Z,51.81
2019-06-20T19:45:00.769Z,51.62
2019-06-20T19:47:29.733Z,51.92
2019-06-20T19:49:58.735Z,50.53
2019-06-20T19:52:27.641Z,54.64
2019-06-20T19:54:56.627Z,52.87
2019-06-20T19:57:25.531Z,52.01
2019-06-20T19:59:54.519Z,55.08
2019-06-20T20:02:23.483Z,51.65
2019-06-20T20:04:52.831Z,51.52
2019-06-20T20:07:22.093Z,50.55
2019-06-20T20:09:50.989Z,52.92
2019-06-20T20:12:19.992Z,51.74
2019-06-20T20:14:48.998Z,53.67
2019-06-20T20:17:17.977Z,51.54
2019-06-20T20:19:46.985Z,51.45
2019-06-20T20:22:15.954Z,52.09
2019-06-20T20:24:45.137Z,51.31
2019-06-20T20:27:14.046Z,50.97
2019-06-20T20:29:43.004Z,49.48
2019-06-20T20:32:12.216Z,51.21
2019-06-20T20:34:41.155Z,49.54
2019-06-20T20:37:10.158Z,52.30
2019-06-20T20:39:39.069Z,50.63
2019-06-20T20:42:08.346Z,49.59
2019-06-20T20:44:37.253Z,50.13
2019-06-20T20:47:06.347Z,49.81
2019-06-20T20:49:35.307Z,50.23
2019-06-20T20:52:04.313Z,49.35
2019-06-20T20:54:33.283Z,50.97
2019-06-20T20:57:02.241Z,51.71
2019-06-20T20:59:31.215Z,51.09
2019-06-20T21:02:00.106Z,51.61
2019-06-20T21:04:29.043Z,52.15
2019-06-20T21:06:57.940Z,52.19
2019-06-20T21:09:26.880Z,51.37
2019-06-20T21:11:55.774Z,50.85
2019-06-20T21:14:24.827Z,51.65
2019-06-20T21:16:53.746Z,52.32
2019-06-20T21:19:22.714Z,51.98
2019-06-20T21:21:51.685Z,53.45
2019-06-20T21:24:20.974Z,53.00
2019-06-20T21:26:50.313Z,53.24
2019-06-20T21:29:19.364Z,52.36
2019-06-20T21:31:48.600Z,50.72
2019-06-20T21:34:17.566Z,50.21
2019-06-20T21:36:46.826Z,50.36
2019-06-20T21:39:15.873Z,52.89
2019-06-20T21:41:44.869Z,52.55
2019-06-20T21:44:13.832Z,50.33
2019-06-20T21:46:42.758Z,50.01
2019-06-20T21:49:11.733Z,49.25
2019-06-20T21:51:44.517Z,51.36
2019-06-20T21:54:11.922Z,51.20
2019-06-20T21:56:41.173Z,50.79
2019-06-20T21:59:10.153Z,50.16
2019-06-20T22:01:39.684Z,50.63
2019-06-20T22:04:08.806Z,51.01
2019-06-20T22:06:37.789Z,51.59
2019-06-20T22:09:08.247Z,50.96
2019-06-20T22:11:37.191Z,52.50
2019-06-20T22:14:06.520Z,52.17
2019-06-20T22:16:35.490Z,51.37
2019-06-20T22:19:04.571Z,51.40
2019-06-20T22:22:09.235Z,53.28
2019-06-20T22:24:38.203Z,51.87
2019-06-20T22:27:07.206Z,51.67
2019-06-20T22:29:36.173Z,51.12
2019-06-20T22:32:05.159Z,50.88
2019-06-20T22:34:34.185Z,51.29
2019-06-20T22:37:03.285Z,49.89
2019-06-20T22:39:32.220Z,50.96
2019-06-20T22:42:01.119Z,49.95
2019-06-20T22:44:30.105Z,50.72
2019-06-20T22:46:59.048Z,49.88
2019-06-20T22:49:28.005Z,52.10
2019-06-20T22:51:56.999Z,50.25
2019-06-20T22:54:25.999Z,50.43
2019-06-20T22:56:54.878Z,50.09
2019-06-20T22:59:23.886Z,49.76
2019-06-20T23:01:52.838Z,48.82
2019-06-20T23:04:21.831Z,50.30
2019-06-20T23:06:56.468Z,49.96
2019-06-20T23:09:21.432Z,50.39
2019-06-20T23:11:50.377Z,50.40
2019-06-20T23:14:19.349Z,50.20
2019-06-20T23:16:49.244Z,51.31
2019-06-20T23:19:18.201Z,50.41
2019-06-20T23:21:47.449Z,51.46
2019-06-20T23:24:16.328Z,51.56
2019-06-20T23:26:45.339Z,52.36
2019-06-20T23:29:23.573Z,51.32
2019-06-20T23:31:53.223Z,52.16
2019-06-20T23:34:22.299Z,50.23
2019-06-20T23:36:51.293Z,51.34
2019-06-20T23:39:20.220Z,50.00
2019-06-20T23:41:49.181Z,50.65
2019-06-20T23:44:18.165Z,50.73
2019-06-20T23:46:47.130Z,50.50
2019-06-20T23:49:16.095Z,51.74
2019-06-20T23:51:50.497Z,52.21
2019-06-20T23:54:19.473Z,50.07
2019-06-20T23:56:48.428Z,50.31
2019-06-20T23:59:17.705Z,51.95
